Baltic Frost — 9HA2868 — position and weather

sailwx.info

Track history (hours):
 
Tides and Currents Weather Stations Pressure Air Temp Water Temp Dewpoint Dewpoint Depression Visibility Wind Speed Wind Dir Waves Ship Positions

Baltic Frost

Last reported at 2016-Dec-05 01:31 UTC. Time now 2016-Dec-05 02:26 UTC.
Position N 57°41' E 011°52'.

Length 182 m; draft 6.8 m.

Type: Ship. MMSI: 256495000.

Date/timePositionNaut miles runAvg speedWind from/ knotsBaromVisibWave heightAir tempDewpointWater temp
2016-Dec-05 01:31N 57°41' E 011°52'0 0.0
2016-Dec-05 00:33N 57°41' E 011°52'0 0.0
2016-Dec-04 23:33N 57°41' E 011°52'0 0.0
2016-Dec-04 22:32N 57°41' E 011°52'0 0.0
2016-Dec-04 21:32N 57°41' E 011°52'0 0.0
2016-Dec-04 20:32N 57°41' E 011°52'0 0.0
2016-Dec-04 19:31N 57°41' E 011°52'0 0.0
2016-Dec-04 18:33N 57°41' E 011°52'3 3.2
2016-Dec-04 17:33N 57°40' E 011°47'7 6.7
2016-Dec-04 16:33N 57°35' E 011°38'7 6.9
2016-Dec-04 15:33N 57°37' E 011°26'9 8.6
2016-Dec-04 14:33N 57°39' E 011°10'10 9.6
2016-Dec-04 13:33N 57°43' E 010°54'9 9.3
2016-Dec-04 12:33N 57°47' E 010°39'1010.5
2016-Dec-04 11:33N 57°48' E 010°19'1211.6
2016-Dec-04 10:33N 57°47' E 009°57'1313.0
2016-Dec-04 09:33N 57°46' E 009°33'1313.1
2016-Dec-04 08:32N 57°45' E 009°08'6913.5
2016-Dec-04 03:25N 57°42' E 006°59'1113.1
2016-Dec-04 02:32N 57°42' E 006°37'1212.6
2016-Dec-04 01:33N 57°49' E 006°18'1413.6
2016-Dec-04 00:31N 57°58' E 005°58'1813.3
2016-Dec-03 23:11N 58°10' E 005°33'2113.0
2016-Dec-03 21:32N 58°25' E 005°04'1312.9
2016-Dec-03 20:33N 58°34' E 004°48'135 8.4
2016-Dec-03 04:32N 60°49' E 005°02'0 0.0
2016-Dec-03 03:33N 60°49' E 005°02'0 0.0
2016-Dec-03 02:33N 60°49' E 005°02'0 0.0
2016-Dec-03 01:33N 60°49' E 005°02'0 0.0
2016-Dec-03 00:33N 60°49' E 005°02'0 0.0
2016-Dec-02 23:33N 60°49' E 005°02'0 0.0
2016-Dec-02 22:33N 60°49' E 005°02'0 0.0
2016-Dec-02 21:33N 60°49' E 005°02'0 0.0
2016-Dec-02 20:33N 60°49' E 005°02'0 0.0
2016-Dec-02 19:33N 60°49' E 005°02'0 0.0
2016-Dec-02 18:33N 60°49' E 005°02'0 0.0
2016-Dec-02 17:33N 60°49' E 005°02'0 0.0
2016-Dec-02 16:33N 60°49' E 005°02'0 0.0
2016-Dec-02 15:33N 60°49' E 005°02'0 0.0
2016-Dec-02 14:33N 60°49' E 005°02'0 0.0
2016-Dec-02 13:33N 60°49' E 005°02'0 0.0
2016-Dec-02 12:33N 60°49' E 005°02'0 0.0
2016-Dec-02 11:32N 60°49' E 005°02'0 0.0
2016-Dec-02 10:32N 60°49' E 005°02'0 0.0
2016-Dec-02 09:32N 60°49' E 005°02'0 0.0
2016-Dec-02 08:33N 60°49' E 005°02'0 0.0
2016-Dec-02 07:33N 60°49' E 005°02'0 0.0
2016-Dec-02 06:33N 60°49' E 005°02'0 0.0
2016-Dec-02 05:33N 60°49' E 005°02'0 0.0
2016-Dec-02 04:33N 60°49' E 005°02'0 0.0
2016-Dec-02 03:31N 60°49' E 005°02'0 0.0
2016-Dec-02 02:29N 60°49' E 005°02'0 0.0
2016-Dec-02 01:32N 60°49' E 005°02'0 0.0
2016-Dec-02 00:31N 60°49' E 005°02'0 0.0
2016-Dec-01 23:31N 60°49' E 005°02'0 0.0
2016-Dec-01 22:33N 60°49' E 005°02'0 0.0
2016-Dec-01 21:31N 60°49' E 005°02'0 0.0
2016-Dec-01 20:29N 60°49' E 005°02'0 0.0
2016-Dec-01 19:26N 60°49' E 005°02'0 0.0
2016-Dec-01 18:32N 60°49' E 005°02'129 4.7
2016-Nov-30 15:17N 58°40' E 004°49'810.8
2016-Nov-30 14:33N 58°34' E 004°59'2410.3
2016-Nov-30 12:14N 58°17' E 005°31'1810.6
2016-Nov-30 10:32N 58°06' E 005°58'1010.6
2016-Nov-30 09:33N 57°59' E 006°12'1110.9
2016-Nov-30 08:33N 57°52' E 006°28'1110.6
2016-Nov-30 07:33N 57°47' E 006°45'12110.9
2016-Nov-29 20:24N 57°50' E 010°33'910.1
2016-Nov-29 19:33N 57°49' E 010°49'1212.0
2016-Nov-29 18:33N 57°43' E 011°08'1212.1
2016-Nov-29 17:33N 57°38' E 011°28'7 7.3
2016-Nov-29 16:33N 57°39' E 011°42'6 6.0
2016-Nov-29 15:31N 57°41' E 011°52'0 0.0
2016-Nov-29 14:27N 57°41' E 011°52'0 0.0
2016-Nov-29 13:33N 57°41' E 011°52'0 0.0
2016-Nov-29 12:33N 57°41' E 011°52'0 0.0
2016-Nov-29 11:29N 57°41' E 011°52'0 0.0
2016-Nov-29 10:32N 57°41' E 011°52'0 0.0
2016-Nov-29 09:31N 57°41' E 011°52'0 0.0
2016-Nov-29 08:31N 57°41' E 011°52'0 0.0
2016-Nov-29 07:33N 57°41' E 011°52'0 0.0
2016-Nov-29 06:33N 57°41' E 011°52'0 0.0
2016-Nov-29 05:32N 57°41' E 011°52'0 0.0
2016-Nov-29 04:32N 57°41' E 011°52'0 0.0
2016-Nov-29 03:32N 57°41' E 011°52'0 0.0
2016-Nov-29 02:31N 57°41' E 011°52'0 0.0
2016-Nov-29 01:31N 57°41' E 011°52'0 0.0
2016-Nov-29 00:33N 57°41' E 011°52'0 0.0
2016-Nov-28 23:33N 57°41' E 011°52'0 0.0
2016-Nov-28 22:32N 57°41' E 011°52'0 0.0
2016-Nov-28 21:32N 57°41' E 011°52'0 0.0
2016-Nov-28 20:32N 57°41' E 011°52'0 0.0
2016-Nov-28 19:31N 57°41' E 011°52'0 0.0
2016-Nov-28 18:31N 57°41' E 011°52'0 0.0
2016-Nov-28 17:33N 57°41' E 011°52'0 0.0
2016-Nov-28 16:33N 57°41' E 011°52'0 0.0
2016-Nov-28 15:32N 57°41' E 011°52'0 0.0
2016-Nov-28 14:32N 57°41' E 011°52'0 0.0
2016-Nov-28 13:32N 57°41' E 011°52'0 0.0
2016-Nov-28 12:31N 57°41' E 011°52'0 0.0
2016-Nov-28 11:31N 57°41' E 011°52'0 0.0
2016-Nov-28 10:33N 57°41' E 011°52'0 0.0
2016-Nov-28 09:33N 57°41' E 011°52'0 0.1
2016-Nov-28 08:33N 57°41' E 011°52'6 5.5
2016-Nov-28 07:33N 57°39' E 011°43'9 9.5
2016-Nov-28 06:34N 57°35' E 011°27'1312.8
2016-Nov-28 05:33N 57°41' E 011°06'1211.6
2016-Nov-28 04:33N 57°47' E 010°46'1111.1
2016-Nov-28 03:34N 57°47' E 010°26'27010.0
2016-Nov-27 00:33N 54°19' E 005°20'1010.4
2016-Nov-26 23:33N 54°10' E 005°11'1110.8
2016-Nov-26 22:33N 53°60' E 005°04'1211.7
2016-Nov-26 21:33N 53°49' E 004°58'1212.0
2016-Nov-26 20:32N 53°37' E 004°51'2711.8
2016-Nov-26 18:15N 53°12' E 004°34'811.7
2016-Nov-26 17:33N 53°05' E 004°27'1212.0
2016-Nov-26 16:33N 52°55' E 004°17'1212.4
2016-Nov-26 15:33N 52°43' E 004°08'3 3.4
2016-Nov-26 14:33N 52°40' E 004°07'1 0.7
2016-Nov-26 13:34N 52°41' E 004°06'1312.9
2016-Nov-26 12:33N 52°33' E 003°49'1414.5
2016-Nov-26 11:34N 52°23' E 003°32'1414.2
2016-Nov-26 10:33N 52°12' E 003°16'1313.5
2016-Nov-26 09:33N 52°03' E 003°01'1313.3
2016-Nov-26 08:32N 51°52' E 002°46'1312.8
2016-Nov-26 07:33N 51°43' E 002°33'1212.4
2016-Nov-26 06:33N 51°33' E 002°20'1211.6
2016-Nov-26 05:33N 51°23' E 002°11'1111.5
2016-Nov-26 04:33N 51°13' E 002°03'1211.5
2016-Nov-26 03:33N 51°07' E 001°47'1211.6
2016-Nov-26 02:33N 50°58' E 001°35'1612.3
2016-Nov-26 01:16N 50°44' E 001°23'4612.3
2016-Nov-25 21:31N 50°23' E 000°19'1212.9
2016-Nov-25 20:33N 50°19' E 000°00'1413.6
2016-Nov-25 19:33N 50°16' W 000°21'2914.1
2016-Nov-25 17:29N 50°07' W 001°04'1213.4
2016-Nov-25 16:33N 50°04' W 001°23'1313.2
2016-Nov-25 15:33N 50°00' W 001°43'1212.3
2016-Nov-25 14:33N 49°58' W 002°01'42 9.4
2016-Nov-25 10:04N 49°47' W 003°04'5 9.2
2016-Nov-25 09:33N 49°46' W 003°12'12 9.5
2016-Nov-25 08:17N 49°42' W 003°30'  
Track history (hours):
 
Tides and Currents Weather Stations Pressure Air Temp Water Temp Dewpoint Dewpoint Depression Visibility Wind Speed Wind Dir Waves Ship Positions

Baltic Frost

Last reported at 2016-Dec-05 01:31 UTC. Time now 2016-Dec-05 02:26 UTC.
Position N 57°41' E 011°52'.

Length 182 m; draft 6.8 m.

Type: Ship. MMSI: 256495000.

Date/timePositionNaut miles runAvg speedWind from/ knotsBaromVisibWave heightAir tempDewpointWater temp
2016-Dec-05 01:31N 57°41' E 011°52'0 0.0
2016-Dec-05 00:33N 57°41' E 011°52'0 0.0
2016-Dec-04 23:33N 57°41' E 011°52'0 0.0
2016-Dec-04 22:32N 57°41' E 011°52'0 0.0
2016-Dec-04 21:32N 57°41' E 011°52'0 0.0
2016-Dec-04 20:32N 57°41' E 011°52'0 0.0
2016-Dec-04 19:31N 57°41' E 011°52'0 0.0
2016-Dec-04 18:33N 57°41' E 011°52'3 3.2
2016-Dec-04 17:33N 57°40' E 011°47'7 6.7
2016-Dec-04 16:33N 57°35' E 011°38'7 6.9
2016-Dec-04 15:33N 57°37' E 011°26'9 8.6
2016-Dec-04 14:33N 57°39' E 011°10'10 9.6
2016-Dec-04 13:33N 57°43' E 010°54'9 9.3
2016-Dec-04 12:33N 57°47' E 010°39'1010.5
2016-Dec-04 11:33N 57°48' E 010°19'1211.6
2016-Dec-04 10:33N 57°47' E 009°57'1313.0
2016-Dec-04 09:33N 57°46' E 009°33'1313.1
2016-Dec-04 08:32N 57°45' E 009°08'6913.5
2016-Dec-04 03:25N 57°42' E 006°59'1113.1
2016-Dec-04 02:32N 57°42' E 006°37'1212.6
2016-Dec-04 01:33N 57°49' E 006°18'1413.6
2016-Dec-04 00:31N 57°58' E 005°58'1813.3
2016-Dec-03 23:11N 58°10' E 005°33'2113.0
2016-Dec-03 21:32N 58°25' E 005°04'1312.9
2016-Dec-03 20:33N 58°34' E 004°48'135 8.4
2016-Dec-03 04:32N 60°49' E 005°02'0 0.0
2016-Dec-03 03:33N 60°49' E 005°02'0 0.0
2016-Dec-03 02:33N 60°49' E 005°02'0 0.0
2016-Dec-03 01:33N 60°49' E 005°02'0 0.0
2016-Dec-03 00:33N 60°49' E 005°02'0 0.0
2016-Dec-02 23:33N 60°49' E 005°02'0 0.0
2016-Dec-02 22:33N 60°49' E 005°02'0 0.0
2016-Dec-02 21:33N 60°49' E 005°02'0 0.0
2016-Dec-02 20:33N 60°49' E 005°02'0 0.0
2016-Dec-02 19:33N 60°49' E 005°02'0 0.0
2016-Dec-02 18:33N 60°49' E 005°02'0 0.0
2016-Dec-02 17:33N 60°49' E 005°02'0 0.0
2016-Dec-02 16:33N 60°49' E 005°02'0 0.0
2016-Dec-02 15:33N 60°49' E 005°02'0 0.0
2016-Dec-02 14:33N 60°49' E 005°02'0 0.0
2016-Dec-02 13:33N 60°49' E 005°02'0 0.0
2016-Dec-02 12:33N 60°49' E 005°02'0 0.0
2016-Dec-02 11:32N 60°49' E 005°02'0 0.0
2016-Dec-02 10:32N 60°49' E 005°02'0 0.0
2016-Dec-02 09:32N 60°49' E 005°02'0 0.0
2016-Dec-02 08:33N 60°49' E 005°02'0 0.0
2016-Dec-02 07:33N 60°49' E 005°02'0 0.0
2016-Dec-02 06:33N 60°49' E 005°02'0 0.0
2016-Dec-02 05:33N 60°49' E 005°02'0 0.0
2016-Dec-02 04:33N 60°49' E 005°02'0 0.0
2016-Dec-02 03:31N 60°49' E 005°02'0 0.0
2016-Dec-02 02:29N 60°49' E 005°02'0 0.0
2016-Dec-02 01:32N 60°49' E 005°02'0 0.0
2016-Dec-02 00:31N 60°49' E 005°02'0 0.0
2016-Dec-01 23:31N 60°49' E 005°02'0 0.0
2016-Dec-01 22:33N 60°49' E 005°02'0 0.0
2016-Dec-01 21:31N 60°49' E 005°02'0 0.0
2016-Dec-01 20:29N 60°49' E 005°02'0 0.0
2016-Dec-01 19:26N 60°49' E 005°02'0 0.0
2016-Dec-01 18:32N 60°49' E 005°02'129 4.7
2016-Nov-30 15:17N 58°40' E 004°49'810.8
2016-Nov-30 14:33N 58°34' E 004°59'2410.3
2016-Nov-30 12:14N 58°17' E 005°31'1810.6
2016-Nov-30 10:32N 58°06' E 005°58'1010.6
2016-Nov-30 09:33N 57°59' E 006°12'1110.9
2016-Nov-30 08:33N 57°52' E 006°28'1110.6
2016-Nov-30 07:33N 57°47' E 006°45'12110.9
2016-Nov-29 20:24N 57°50' E 010°33'910.1
2016-Nov-29 19:33N 57°49' E 010°49'1212.0
2016-Nov-29 18:33N 57°43' E 011°08'1212.1
2016-Nov-29 17:33N 57°38' E 011°28'7 7.3
2016-Nov-29 16:33N 57°39' E 011°42'6 6.0
2016-Nov-29 15:31N 57°41' E 011°52'0 0.0
2016-Nov-29 14:27N 57°41' E 011°52'0 0.0
2016-Nov-29 13:33N 57°41' E 011°52'0 0.0
2016-Nov-29 12:33N 57°41' E 011°52'0 0.0
2016-Nov-29 11:29N 57°41' E 011°52'0 0.0
2016-Nov-29 10:32N 57°41' E 011°52'0 0.0
2016-Nov-29 09:31N 57°41' E 011°52'0 0.0
2016-Nov-29 08:31N 57°41' E 011°52'0 0.0
2016-Nov-29 07:33N 57°41' E 011°52'0 0.0
2016-Nov-29 06:33N 57°41' E 011°52'0 0.0
2016-Nov-29 05:32N 57°41' E 011°52'0 0.0
2016-Nov-29 04:32N 57°41' E 011°52'0 0.0
2016-Nov-29 03:32N 57°41' E 011°52'0 0.0
2016-Nov-29 02:31N 57°41' E 011°52'0 0.0
2016-Nov-29 01:31N 57°41' E 011°52'0 0.0
2016-Nov-29 00:33N 57°41' E 011°52'0 0.0
2016-Nov-28 23:33N 57°41' E 011°52'0 0.0
2016-Nov-28 22:32N 57°41' E 011°52'0 0.0
2016-Nov-28 21:32N 57°41' E 011°52'0 0.0
2016-Nov-28 20:32N 57°41' E 011°52'0 0.0
2016-Nov-28 19:31N 57°41' E 011°52'0 0.0
2016-Nov-28 18:31N 57°41' E 011°52'0 0.0
2016-Nov-28 17:33N 57°41' E 011°52'0 0.0
2016-Nov-28 16:33N 57°41' E 011°52'0 0.0
2016-Nov-28 15:32N 57°41' E 011°52'0 0.0
2016-Nov-28 14:32N 57°41' E 011°52'0 0.0
2016-Nov-28 13:32N 57°41' E 011°52'0 0.0
2016-Nov-28 12:31N 57°41' E 011°52'0 0.0
2016-Nov-28 11:31N 57°41' E 011°52'0 0.0
2016-Nov-28 10:33N 57°41' E 011°52'0 0.0
2016-Nov-28 09:33N 57°41' E 011°52'0 0.1
2016-Nov-28 08:33N 57°41' E 011°52'6 5.5
2016-Nov-28 07:33N 57°39' E 011°43'9 9.5
2016-Nov-28 06:34N 57°35' E 011°27'1312.8
2016-Nov-28 05:33N 57°41' E 011°06'1211.6
2016-Nov-28 04:33N 57°47' E 010°46'1111.1
2016-Nov-28 03:34N 57°47' E 010°26'27010.0
2016-Nov-27 00:33N 54°19' E 005°20'1010.4
2016-Nov-26 23:33N 54°10' E 005°11'1110.8
2016-Nov-26 22:33N 53°60' E 005°04'1211.7
2016-Nov-26 21:33N 53°49' E 004°58'1212.0
2016-Nov-26 20:32N 53°37' E 004°51'2711.8
2016-Nov-26 18:15N 53°12' E 004°34'811.7
2016-Nov-26 17:33N 53°05' E 004°27'1212.0
2016-Nov-26 16:33N 52°55' E 004°17'1212.4
2016-Nov-26 15:33N 52°43' E 004°08'3 3.4
2016-Nov-26 14:33N 52°40' E 004°07'1 0.7
2016-Nov-26 13:34N 52°41' E 004°06'1312.9
2016-Nov-26 12:33N 52°33' E 003°49'1414.5
2016-Nov-26 11:34N 52°23' E 003°32'1414.2
2016-Nov-26 10:33N 52°12' E 003°16'1313.5
2016-Nov-26 09:33N 52°03' E 003°01'1313.3
2016-Nov-26 08:32N 51°52' E 002°46'1312.8
2016-Nov-26 07:33N 51°43' E 002°33'1212.4
2016-Nov-26 06:33N 51°33' E 002°20'1211.6
2016-Nov-26 05:33N 51°23' E 002°11'1111.5
2016-Nov-26 04:33N 51°13' E 002°03'1211.5
2016-Nov-26 03:33N 51°07' E 001°47'1211.6
2016-Nov-26 02:33N 50°58' E 001°35'1612.3
2016-Nov-26 01:16N 50°44' E 001°23'4612.3
2016-Nov-25 21:31N 50°23' E 000°19'1212.9
2016-Nov-25 20:33N 50°19' E 000°00'1413.6
2016-Nov-25 19:33N 50°16' W 000°21'2914.1
2016-Nov-25 17:29N 50°07' W 001°04'1213.4
2016-Nov-25 16:33N 50°04' W 001°23'1313.2
2016-Nov-25 15:33N 50°00' W 001°43'1212.3
2016-Nov-25 14:33N 49°58' W 002°01'42 9.4
2016-Nov-25 10:04N 49°47' W 003°04'5 9.2
2016-Nov-25 09:33N 49°46' W 003°12'12 9.5
2016-Nov-25 08:17N 49°42' W 003°30'  

Dump ship's entire track history